Flight Track Log - Related Links

Times and Time Zones

All times are in EDT time to prevent confusion due to time zone crossing. See the SWA1435 flight status page for this flight to view local times or setup timezone preferences in your user account.

Time Position Orientation Groundspeed Altitude Reporting Facility
EDT Latitude Longitude Course Direction KTS MPH feet Rate Location/Type
Fri 09:29:04 AM 38.7833 -90.4333 318° Northwest 203 234 3,400  Level Gateway (St. Louis) TRACON
Fri 09:29:20 AM 38.7850 -90.4417 284° West 201 231 4,100 2,338 Climbing Kansas City Center
Fri 09:30:21 AM 38.8211 -90.5142 303° West 223 257 6,400 2,634 Climbing Kansas City Center
Fri 09:31:23 AM 38.8622 -90.5964 303° West 256 295 9,500 2,806 Climbing Kansas City Center
Fri 09:32:25 AM 38.9039 -90.6792 303° West 270 311 12,200 2,390 Climbing Kansas City Center
Fri 09:33:26 AM 38.9531 -90.7778 303° West 307 353 14,400 2,537 Climbing Kansas City Center
Fri 09:34:00 AM 38.7938 -90.7456 318° Northwest  Level FlightAware Approximate
Fri 09:34:28 AM 39.0144 -90.9008 303° West 333 383 17,400  Level Kansas City Center
Fri 09:35:30 AM 39.0683 -91.0097 303° West 347 399 20,100 2,439 Climbing Kansas City Center
Fri 09:36:31 AM 39.1219 -91.1217 302° West 359 413 22,400 2,146 Climbing Kansas City Center
Fri 09:37:33 AM 39.1728 -91.2400 299° West 369 425 24,500 1,935 Climbing Kansas City Center
Fri 09:38:35 AM 39.2211 -91.3628 297° West 377 434 26,400 1,742 Climbing Kansas City Center
Fri 09:39:37 AM 39.2683 -91.4869 296° West 384 442 28,100 1,512 Climbing Kansas City Center
Fri 09:40:38 AM 39.3183 -91.6139 297° West 395 455 29,500 1,756 Climbing Kansas City Center
Fri 09:41:40 AM 39.3750 -91.7586 297° West 395 455 31,700 1,645 Climbing Kansas City Center
Fri 09:42:42 AM 39.4267 -91.8808 299° West 391 450 32,900 1,073 Climbing Kansas City Center
Fri 09:43:43 AM 39.4956 -91.9933 308° West 399 459 33,900 537 Climbing Kansas City Center
Fri 09:44:45 AM 39.5608 -92.1119 306° West 404 465 34,000 48 Climbing Kansas City Center
Fri 09:45:47 AM 39.6275 -92.2281 307° West 404 465 34,000  Level Kansas City Center
Fri 09:46:49 AM 39.7047 -92.3636 307° West 394 453 34,000  Level Kansas City Center
Fri 09:47:51 AM 39.7686 -92.4764 306° West 389 448 34,000  Level Kansas City Center
Fri 09:48:52 AM 39.8342 -92.5883 307° West 390 449 34,000  Level Kansas City Center
Fri 09:49:54 AM 39.9003 -92.7061 306° West 398 458 34,000  Level Kansas City Center
Fri 09:50:56 AM 39.9664 -92.8228 307° West 399 459 34,000  Level Kansas City Center
Fri 09:51:58 AM 40.0319 -92.9414 306° West 402 463 34,000  Level Kansas City Center
Fri 09:53:00 AM 40.0978 -93.0611 306° West 404 465 34,000  Level Kansas City Center
Fri 09:54:02 AM 40.1808 -93.2061 307° West 411 473 34,000  Level Kansas City Center
Fri 09:55:03 AM 40.2447 -93.3250 305° West 408 470 34,000  Level Kansas City Center
Fri 09:56:05 AM 40.3117 -93.4461 306° West 410 472 34,000  Level Kansas City Center
Fri 09:57:07 AM 40.3772 -93.5675 305° West 411 473 34,000  Level Kansas City Center
Fri 09:58:09 AM 40.4444 -93.6875 306° West 411 473 34,000  Level Kansas City Center
Fri 09:59:11 AM 40.5094 -93.8081 305° West 408 470 34,000 -339 Level Kansas City Center
Fri 10:00:13 AM 40.5878 -93.9536 305° West 408 470 33,300 -829 Descending Kansas City Center
Fri 10:01:14 AM 40.6194 -94.0972 286° West 414 476 32,300 -1,512 Descending Kansas City Center
Fri 10:02:16 AM 40.6422 -94.2447 282° West 412 474 30,200 -2,226 Descending Kansas City Center
Fri 10:03:18 AM 40.6672 -94.3914 283° West 415 478 27,700 -2,371 Descending Kansas City Center
Fri 10:04:20 AM 40.6911 -94.5378 282° West 391 450 25,300 -2,390 Descending Kansas City Center
Fri 10:05:21 AM 40.7142 -94.6864 282° West 375 432 22,800 -2,195 Descending Kansas City Center
Fri 10:06:23 AM 40.7336 -94.8081 282° West 362 417 20,800 -2,104 Descending Kansas City Center
Fri 10:06:38 AM 40.7531 -94.8336 315° West 353 406 20,100 -2,055 Descending Minneapolis Center
Fri 10:07:36 AM 40.7558 -94.9553 272° West 341 392 18,300 -1,900 Descending Minneapolis Center
Fri 10:08:38 AM 40.7753 -95.0703 283° West 332 382 16,300 -1,662 Descending Minneapolis Center
Fri 10:09:46 AM 40.8453 -95.1747 312° West 299 344 14,700 -2,074 Descending Minneapolis Center
Fri 10:10:54 AM 40.8892 -95.2700 301° West 314 361 11,600 -2,479 Descending Minneapolis Center
Fri 10:11:47 AM 40.9553 -95.3650 313° West 333 383 9,700 -1,579 Descending Minneapolis Center
Fri 10:12:48 AM 40.9931 -95.4544 299° West 274 315 8,600 -1,240 Descending Minneapolis Center
Fri 10:13:48 AM 41.0233 -95.5558 292° West 274 315 7,200 -1,785 Descending Minneapolis Center
Fri 10:14:49 AM 41.0503 -95.6436 292° West 255 293 5,000 -1,967 Descending Minneapolis Center
Fri 10:15:50 AM 41.1047 -95.7064 319° Northwest 264 304 3,200 -992 Descending Minneapolis Center
Fri 10:16:50 AM 41.1583 -95.7581 324° Northwest 229 264 3,000 -99 Descending Minneapolis Center
Fri 10:17:51 AM 41.2011 -95.8031 322° Northwest 175 201 3,000  Level Minneapolis Center
Fri 10:18:07 AM 41.2069 -95.8044 350° North 218 251 3,000 -700 Level Minneapolis Center
Fri 10:18:51 AM 41.2392 -95.8400 320° Northwest 142 163 2,300 -871 Descending Minneapolis Center
Fri 10:19:09 AM 41.2486 -95.8442 342° North 174 200 2,100 -689 Descending Minneapolis Center
Fri 10:19:52 AM 41.2703 -95.8669 322° Northwest 128 147 1,600 -492 Descending Minneapolis Center
Fri 10:20:10 AM 41.2722 -95.8672 354° North 156 180 1,600 -391 Level Minneapolis Center
Fri 10:21:24 AM 41.3025 -95.8961 324° Northwest 142 163 1,000 -486 Descending Minneapolis Center

Login

Don't have an account? Register now (free) for customized features, flight alerts, and more!